Time;durP1;ratioP1;P1;durP2;ratioP2;P2;SDS_P1;SDS_P2;PMS_P1;PMS_P2;Temp;Humidity;BMP_temperature;BMP_pressure;BME280_temperature;BME280_humidity;BME280_pressure;Samples;Min_cycle;Max_cycle;Signal;HPM_P1;HPM_P2
2023/03/11 00:01:23;;;;;;;;;0.00;0.00;;;;;7.72;77.61;98578.41;5093938;27;47435;-77
2023/03/11 00:03:49;;;;;;;;;0.00;0.00;;;;;7.69;78.02;98581.19;5096511;27;45413;-76
2023/03/11 00:06:15;;;;;;;;;0.00;0.00;;;;;7.67;78.69;98591.72;5096133;27;45411;-77
2023/03/11 00:08:40;;;;;;;;;1.00;0.00;;;;;7.65;80.15;98590.06;5094420;27;45828;-77
2023/03/11 00:11:06;;;;;;;;;1.00;0.00;;;;;7.55;79.15;98583.44;5095754;27;45371;-78
2023/03/11 00:13:32;;;;;;;;;0.00;0.00;;;;;7.53;78.32;98593.16;5095662;27;45382;-77
2023/03/11 00:15:59;;;;;;;;;1.75;0.00;;;;;7.51;78.81;98580.09;5093811;27;45417;-76
2023/03/11 00:18:26;;;;;;;;;0.00;0.00;;;;;7.48;77.95;98569.72;5094848;27;45539;-77
2023/03/11 00:20:53;;;;;;;;;0.00;0.00;;;;;7.50;79.06;98570.50;5093465;27;45485;-77
2023/03/11 00:23:19;;;;;;;;;1.00;0.00;;;;;7.54;79.50;98545.03;5095563;27;45452;-77
2023/03/11 00:25:45;;;;;;;;;0.00;0.00;;;;;7.58;79.61;98538.75;5095820;27;45522;-77
2023/03/11 00:28:12;;;;;;;;;0.00;0.00;;;;;7.63;79.78;98540.28;5095659;27;45353;-77
2023/03/11 00:30:39;;;;;;;;;0.00;0.00;;;;;7.68;78.83;98548.00;5095155;27;46668;-77
2023/03/11 00:33:05;;;;;;;;;0.50;0.50;;;;;7.71;79.60;98545.22;5095536;27;45447;-77
2023/03/11 00:35:32;;;;;;;;;0.00;0.00;;;;;7.73;79.93;98535.53;5094266;27;45448;-77
2023/03/11 00:38:01;;;;;;;;;0.00;0.00;;;;;7.77;79.65;98545.00;5095667;27;45410;-77
2023/03/11 00:40:29;;;;;;;;;8.00;7.33;;;;;7.80;79.96;98539.66;5095398;27;46447;-78
2023/03/11 00:42:55;;;;;;;;;0.00;0.00;;;;;7.82;78.87;98522.06;5093853;27;45475;-77
2023/03/11 00:45:21;;;;;;;;;0.50;0.00;;;;;7.81;78.68;98517.75;5095221;27;45312;-77
2023/03/11 00:47:46;;;;;;;;;2.00;0.00;;;;;7.85;78.67;98516.72;5094788;27;45380;-76
2023/03/11 00:50:17;;;;;;;;;2.00;0.00;;;;;7.89;79.15;98512.19;5093249;27;47270;-77
2023/03/11 00:52:44;;;;;;;;;0.00;0.00;;;;;7.88;79.10;98528.84;5095605;27;45521;-77
2023/03/11 00:55:14;;;;;;;;;0.00;0.00;;;;;7.86;79.12;98515.81;5093760;27;45413;-77
2023/03/11 00:57:39;;;;;;;;;0.00;0.00;;;;;7.85;78.36;98508.84;5093381;27;45696;-77
2023/03/11 01:00:10;;;;;;;;;0.00;0.00;;;;;7.84;79.21;98506.28;5094783;27;45467;-77
2023/03/11 01:02:35;;;;;;;;;1.00;0.00;;;;;7.84;79.81;98509.75;5094471;27;45435;-77
2023/03/11 01:05:01;;;;;;;;;0.00;0.00;;;;;7.86;80.23;98509.69;5095047;27;45457;-77
2023/03/11 01:07:26;;;;;;;;;0.00;0.00;;;;;7.89;79.64;98499.06;5095160;27;45302;-77
2023/03/11 01:09:52;;;;;;;;;0.00;0.00;;;;;7.92;78.49;98499.81;5094884;27;45356;-77
2023/03/11 01:12:17;;;;;;;;;0.00;0.00;;;;;7.91;78.71;98494.59;5095085;27;45564;-77
2023/03/11 01:14:42;;;;;;;;;0.25;0.25;;;;;7.93;79.69;98477.03;5094913;27;45519;-77
2023/03/11 01:17:08;;;;;;;;;2.00;0.00;;;;;7.94;78.91;98478.75;5094641;27;45302;-77
2023/03/11 01:19:33;;;;;;;;;0.00;0.00;;;;;7.94;78.71;98479.59;5095053;27;45650;-78
2023/03/11 01:21:59;;;;;;;;;0.00;0.00;;;;;7.92;79.20;98465.69;5094741;27;45580;-77
2023/03/11 01:24:24;;;;;;;;;1.00;0.00;;;;;7.92;79.57;98457.81;5094957;27;45641;-77
2023/03/11 01:26:49;;;;;;;;;1.50;0.00;;;;;7.91;79.36;98457.88;5094384;27;45330;-77
2023/03/11 01:29:15;;;;;;;;;1.00;1.00;;;;;7.89;79.81;98457.06;5094459;27;46580;-77
2023/03/11 01:31:40;;;;;;;;;0.75;0.00;;;;;7.84;79.94;98453.78;5094595;27;45442;-78
2023/03/11 01:34:05;;;;;;;;;0.75;0.00;;;;;7.79;79.81;98463.59;5094650;27;45332;-78
2023/03/11 01:36:31;;;;;;;;;0.00;0.00;;;;;7.78;80.49;98444.38;5094702;27;45525;-78
2023/03/11 01:38:56;;;;;;;;;2.00;0.00;;;;;7.79;80.89;98442.63;5094422;27;46340;-77
2023/03/11 01:41:21;;;;;;;;;0.00;0.00;;;;;7.79;81.09;98446.09;5094562;27;45410;-78
2023/03/11 01:43:53;;;;;;;;;0.00;0.00;;;;;7.78;80.89;98425.16;5094702;27;45556;-78
2023/03/11 01:46:18;;;;;;;;;0.00;0.00;;;;;7.79;80.63;98442.63;5094443;27;45435;-78
2023/03/11 01:48:50;;;;;;;;;0.00;0.00;;;;;7.80;81.19;98436.47;5094456;27;45414;-77
2023/03/11 01:51:23;;;;;;;;;1.00;1.00;;;;;7.82;80.95;98426.75;5093075;27;45358;-76
2023/03/11 01:53:49;;;;;;;;;0.00;0.00;;;;;7.82;81.63;98405.78;5093209;27;45526;-76
2023/03/11 01:56:15;;;;;;;;;0.00;0.00;;;;;7.85;82.40;98409.13;5096394;27;45560;-76
2023/03/11 01:58:45;;;;;;;;;0.50;0.00;;;;;7.87;82.32;98402.06;5097854;27;45450;-76
2023/03/11 02:01:12;;;;;;;;;0.00;0.00;;;;;7.90;81.87;98385.31;5097340;27;45375;-76
2023/03/11 02:03:39;;;;;;;;;0.75;0.00;;;;;7.94;81.77;98408.75;5097981;27;45528;-77
2023/03/11 02:06:10;;;;;;;;;0.00;0.00;;;;;7.97;81.27;98392.03;5097965;27;45369;-77
2023/03/11 02:08:35;;;;;;;;;0.00;0.00;;;;;8.00;81.11;98376.16;5097531;27;45454;-77
2023/03/11 02:11:04;;;;;;;;;0.00;0.00;;;;;8.01;81.36;98356.84;5097999;27;45396;-76
2023/03/11 02:13:33;;;;;;;;;0.00;0.00;;;;;8.02;81.39;98379.56;5098005;27;45482;-77
2023/03/11 02:15:59;;;;;;;;;0.00;0.00;;;;;8.01;80.97;98383.09;5097574;27;45416;-76
2023/03/11 02:18:25;;;;;;;;;0.00;0.00;;;;;7.95;81.30;98354.47;5096230;27;47158;-77
2023/03/11 02:21:04;;;;;;;;;1.75;0.50;;;;;7.97;81.95;98350.88;5096335;27;45751;-76
2023/03/11 02:23:46;;;;;;;;;0.50;0.00;;;;;8.00;82.21;98347.28;5097703;27;45416;-76
2023/03/11 02:26:19;;;;;;;;;2.00;0.75;;;;;8.02;81.98;98346.31;5097042;27;45394;-76
2023/03/11 02:28:47;;;;;;;;;2.00;0.00;;;;;8.03;82.04;98334.88;5095566;27;47068;-77
2023/03/11 02:31:14;;;;;;;;;0.00;0.00;;;;;8.06;82.33;98337.34;5096752;27;45462;-76
2023/03/11 02:33:41;;;;;;;;;0.75;0.00;;;;;8.09;82.42;98311.91;5097600;27;45481;-76
2023/03/11 02:36:38;;;;;;;;;0.00;0.00;;;;;8.11;82.30;98300.41;5097383;27;45319;-77
2023/03/11 02:39:05;;;;;;;;;0.00;0.00;;;;;8.15;82.55;98298.50;5097355;27;45563;-76
2023/03/11 02:41:34;;;;;;;;;0.75;0.75;;;;;8.17;81.99;98300.16;5097471;27;45437;-76
2023/03/11 02:44:01;;;;;;;;;1.00;1.00;;;;;8.19;80.99;98300.09;5097224;27;45411;-77
2023/03/11 02:46:27;;;;;;;;;0.00;0.00;;;;;8.19;81.67;98290.44;5096528;27;45352;-77
2023/03/11 02:48:54;;;;;;;;;0.00;0.00;;;;;8.20;82.19;98294.78;5096603;27;45981;-77
2023/03/11 02:51:19;;;;;;;;;0.00;0.00;;;;;8.21;82.43;98291.22;5096663;27;45533;-77
2023/03/11 02:53:49;;;;;;;;;0.00;0.00;;;;;8.22;82.24;98287.66;5097075;27;45388;-76
2023/03/11 02:56:14;;;;;;;;;1.00;0.00;;;;;8.23;82.13;98286.75;5095562;27;45522;-77
2023/03/11 02:58:40;;;;;;;;;2.00;0.25;;;;;8.21;82.36;98280.69;5096210;27;45585;-77
2023/03/11 03:01:05;;;;;;;;;1.00;1.00;;;;;8.19;82.54;98272.06;5094662;27;45326;-77
2023/03/11 03:03:31;;;;;;;;;0.25;0.25;;;;;8.16;82.39;98263.47;5095203;27;45327;-77
2023/03/11 03:05:56;;;;;;;;;0.00;0.00;;;;;8.15;82.75;98277.50;5096107;27;45412;-77
2023/03/11 03:08:22;;;;;;;;;0.00;0.00;;;;;8.15;83.26;98273.13;5096387;27;45479;-77
2023/03/11 03:10:47;;;;;;;;;1.00;0.50;;;;;8.19;83.04;98294.84;5095297;27;45377;-76
2023/03/11 03:13:12;;;;;;;;;0.25;0.25;;;;;8.22;83.42;98278.94;5095600;27;45334;-77
2023/03/11 03:15:38;;;;;;;;;0.50;0.50;;;;;8.21;83.03;98283.31;5096987;27;45405;-76
2023/03/11 03:18:03;;;;;;;;;1.00;1.00;;;;;8.23;84.08;98304.28;5095116;27;48032;-77
2023/03/11 03:20:29;;;;;;;;;1.00;0.50;;;;;8.22;83.56;98294.69;5097145;27;45327;-76
2023/03/11 03:22:54;;;;;;;;;1.00;1.00;;;;;8.21;83.73;98282.50;5095527;27;45628;-76
2023/03/11 03:25:20;;;;;;;;;0.75;0.75;;;;;8.24;84.24;98288.44;5096801;27;45486;-76
2023/03/11 03:27:45;;;;;;;;;1.75;1.00;;;;;8.27;84.01;98295.34;5112234;27;45753;-77
2023/03/11 03:30:11;;;;;;;;;1.00;1.00;;;;;8.28;84.18;98273.41;5096444;27;45466;-77
2023/03/11 03:32:36;;;;;;;;;2.50;2.50;;;;;8.28;84.75;98262.91;5095945;27;45476;-76
2023/03/11 03:35:02;;;;;;;;;2.00;2.00;;;;;8.29;84.87;98275.13;5096489;27;45387;-76
2023/03/11 03:37:33;;;;;;;;;1.00;1.00;;;;;8.30;84.69;98256.69;5094894;27;48153;-77
2023/03/11 03:39:58;;;;;;;;;2.00;2.00;;;;;8.29;84.64;98251.50;5095053;27;45860;-77
2023/03/11 03:42:24;;;;;;;;;2.25;2.25;;;;;8.28;85.53;98241.91;5096689;27;45455;-76
2023/03/11 03:44:50;;;;;;;;;4.25;3.00;;;;;8.28;85.53;98242.75;5096599;27;45396;-77
2023/03/11 03:47:16;;;;;;;;;4.25;3.50;;;;;8.26;85.44;98249.84;5094512;27;47340;-76
2023/03/11 03:49:41;;;;;;;;;4.25;3.00;;;;;8.24;85.53;98256.09;5096187;27;45453;-77
2023/03/11 03:52:07;;;;;;;;;3.00;3.00;;;;;8.25;86.20;98237.66;5096237;27;45371;-77
2023/03/11 03:54:33;;;;;;;;;4.00;4.00;;;;;8.25;85.84;98239.41;5094777;27;45890;-76
2023/03/11 03:56:59;;;;;;;;;4.00;4.00;;;;;8.25;86.04;98242.03;5095816;27;45593;-77
2023/03/11 03:59:24;;;;;;;;;4.75;4.75;;;;;8.27;86.14;98227.06;5095740;27;45431;-77
2023/03/11 04:01:49;;;;;;;;;3.50;3.50;;;;;8.26;86.32;98222.75;5095294;27;45427;-77
2023/03/11 04:04:15;;;;;;;;;4.50;4.00;;;;;8.26;86.58;98239.34;5096026;27;45493;-77
2023/03/11 04:06:41;;;;;;;;;7.00;5.50;;;;;8.27;86.57;98248.09;5095694;27;46624;-77
2023/03/11 04:09:09;;;;;;;;;7.00;5.50;;;;;8.27;86.33;98248.94;5095601;27;45370;-77
2023/03/11 04:11:35;;;;;;;;;6.25;4.25;;;;;8.27;86.59;98248.94;5095807;27;45506;-77
2023/03/11 04:14:01;;;;;;;;;5.75;5.25;;;;;8.28;86.73;98227.00;5095718;27;45640;-76
2023/03/11 04:16:27;;;;;;;;;7.75;5.75;;;;;8.29;87.34;98227.88;5095456;27;45425;-77
2023/03/11 04:18:52;;;;;;;;;8.67;6.00;;;;;8.28;87.05;98250.63;5094970;27;45406;-77
2023/03/11 04:21:18;;;;;;;;;7.50;4.75;;;;;8.29;86.83;98231.34;5095012;27;45589;-77
2023/03/11 04:23:43;;;;;;;;;6.00;6.00;;;;;8.27;87.28;98246.31;5096147;27;45452;-78
2023/03/11 04:26:09;;;;;;;;;6.33;4.67;;;;;8.24;86.93;98262.19;5095989;27;46094;-77
2023/03/11 04:28:34;;;;;;;;;7.33;4.00;;;;;8.25;87.20;98221.88;5096099;27;45481;-77
2023/03/11 04:30:59;;;;;;;;;8.50;6.25;;;;;8.23;87.14;98202.72;5094289;27;45962;-77
2023/03/11 04:33:25;;;;;;;;;5.00;4.67;;;;;8.22;87.04;98215.91;5095624;27;45463;-78
2023/03/11 04:35:50;;;;;;;;;5.00;3.75;;;;;8.19;87.10;98224.81;5093725;27;47345;-77
2023/03/11 04:38:16;;;;;;;;;3.50;3.00;;;;;8.20;87.20;98225.66;5095094;27;45402;-77
2023/03/11 04:40:41;;;;;;;;;5.25;3.00;;;;;8.19;87.10;98221.34;5095555;27;45460;-77
2023/03/11 04:43:07;;;;;;;;;5.75;5.00;;;;;8.18;86.61;98215.22;5095631;27;45390;-77
2023/03/11 04:45:33;;;;;;;;;3.25;3.25;;;;;8.16;87.12;98222.31;5095211;27;46402;-77
2023/03/11 04:47:58;;;;;;;;;4.00;4.00;;;;;8.15;87.29;98233.75;5095131;27;45443;-77
2023/03/11 04:50:24;;;;;;;;;4.00;3.25;;;;;8.16;86.71;98224.94;5093973;27;45469;-77
2023/03/11 04:52:49;;;;;;;;;5.25;3.75;;;;;8.15;86.77;98240.75;5095405;27;45400;-77
2023/03/11 04:55:15;;;;;;;;;3.50;3.50;;;;;8.13;87.30;98209.31;5095345;27;45481;-77
2023/03/11 04:57:42;;;;;;;;;3.00;3.00;;;;;8.12;86.92;98215.50;5094100;27;45922;-77
2023/03/11 05:00:11;;;;;;;;;5.00;5.00;;;;;8.12;87.22;98231.25;5095401;27;45419;-77
2023/03/11 05:02:38;;;;;;;;;3.50;3.50;;;;;8.12;87.56;98193.63;5094928;27;45444;-78
2023/03/11 05:05:05;;;;;;;;;3.50;3.25;;;;;8.11;86.91;98223.44;5095132;27;45706;-77
2023/03/11 05:07:31;;;;;;;;;8.50;5.75;;;;;8.09;87.27;98225.28;5095147;27;45511;-77
2023/03/11 05:09:56;;;;;;;;;3.00;3.00;;;;;8.06;86.88;98227.09;5093996;27;45445;-78
2023/03/11 05:12:22;;;;;;;;;2.00;2.00;;;;;8.07;87.32;98225.34;5093984;27;45532;-77
2023/03/11 05:14:47;;;;;;;;;3.75;3.75;;;;;8.07;87.37;98201.72;5093910;27;46975;-77
2023/03/11 05:17:13;;;;;;;;;1.00;1.00;;;;;8.07;87.69;98218.31;5095013;27;45434;-77
2023/03/11 05:19:39;;;;;;;;;5.00;3.00;;;;;8.07;87.38;98220.94;5095230;27;45507;-77
2023/03/11 05:22:05;;;;;;;;;2.00;2.00;;;;;8.12;86.90;98233.00;5095058;27;45597;-77
2023/03/11 05:24:32;;;;;;;;;2.50;2.00;;;;;8.12;87.48;98228.63;5094464;27;46469;-77
2023/03/11 05:26:57;;;;;;;;;1.50;1.50;;;;;8.12;87.44;98228.63;5094791;27;45368;-77
2023/03/11 05:29:24;;;;;;;;;3.25;1.50;;;;;8.07;87.42;98228.81;5094129;27;45426;-78
2023/03/11 05:31:49;;;;;;;;;3.00;2.25;;;;;8.05;87.79;98196.53;5094812;27;45566;-78
2023/03/11 05:34:15;;;;;;;;;3.00;3.00;;;;;8.05;87.63;98193.91;5093451;27;45977;-77
2023/03/11 05:36:40;;;;;;;;;3.50;3.50;;;;;8.05;87.46;98193.03;5094988;27;45470;-77
2023/03/11 05:39:06;;;;;;;;;3.75;3.75;;;;;8.04;88.07;98188.75;5094982;27;45369;-77
2023/03/11 05:41:32;;;;;;;;;3.50;3.00;;;;;8.02;88.15;98196.69;5094661;27;45629;-77
2023/03/11 05:43:57;;;;;;;;;5.00;3.00;;;;;8.01;87.72;98196.75;5094138;27;46288;-78
2023/03/11 05:46:23;;;;;;;;;3.50;3.50;;;;;8.00;88.14;98177.53;5093635;27;45505;-77
2023/03/11 05:48:48;;;;;;;;;5.00;3.50;;;;;8.00;88.49;98156.53;5093316;27;45460;-78
2023/03/11 05:51:14;;;;;;;;;3.00;2.00;;;;;8.01;88.53;98181.84;5093511;27;45400;-77
2023/03/11 05:53:48;;;;;;;;;3.00;3.00;;;;;8.01;88.30;98189.72;5094575;27;45488;-77
2023/03/11 05:56:19;;;;;;;;;4.00;2.25;;;;;8.03;87.83;98197.53;5093237;27;45391;-77
2023/03/11 05:58:44;;;;;;;;;3.00;3.00;;;;;8.03;88.44;98179.16;5094509;27;45371;-77
2023/03/11 06:01:11;;;;;;;;;4.00;3.00;;;;;8.05;88.42;98206.19;5094080;27;45602;-76
2023/03/11 06:03:38;;;;;;;;;1.50;1.50;;;;;8.04;87.86;98215.00;5094508;27;45376;-77
2023/03/11 06:06:06;;;;;;;;;2.00;1.50;;;;;8.02;88.09;98208.97;5094603;27;45438;-77
2023/03/11 06:08:33;;;;;;;;;2.00;2.00;;;;;8.03;88.73;98205.41;5093249;27;45333;-77
2023/03/11 06:11:04;;;;;;;;;1.00;1.00;;;;;8.05;88.38;98211.44;5093304;27;45419;-76
2023/03/11 06:13:30;;;;;;;;;1.50;1.00;;;;;8.07;88.73;98222.72;5081057;27;46723;-77
2023/03/11 06:15:55;;;;;;;;;2.00;1.00;;;;;8.06;88.70;98200.84;5094357;27;45274;-77
2023/03/11 06:18:21;;;;;;;;;1.50;1.50;;;;;8.08;88.88;98208.66;5094712;27;45891;-78
2023/03/11 06:20:46;;;;;;;;;2.00;2.00;;;;;8.09;88.37;98246.28;5094735;27;45425;-78
2023/03/11 06:23:12;;;;;;;;;1.00;1.00;;;;;8.07;87.52;98226.19;5079456;27;47122;-78
2023/03/11 06:25:37;;;;;;;;;2.00;2.00;;;;;8.02;88.52;98224.72;5094460;27;45415;-78
2023/03/11 06:28:02;;;;;;;;;4.00;4.00;;;;;8.04;88.57;98241.25;5093373;27;45830;-78
2023/03/11 06:30:28;;;;;;;;;4.00;4.00;;;;;8.04;88.77;98238.63;5094343;27;45355;-78
2023/03/11 06:32:54;;;;;;;;;3.25;2.50;;;;;8.04;88.38;98247.31;5092071;27;46692;-77
2023/03/11 06:35:19;;;;;;;;;3.00;3.00;;;;;8.04;88.38;98234.19;5093909;27;45388;-78
2023/03/11 06:37:45;;;;;;;;;4.50;4.25;;;;;8.00;88.38;98251.03;5093860;27;45362;-77
2023/03/11 06:40:11;;;;;;;;;2.50;2.50;;;;;8.00;88.19;98248.41;5093984;27;45514;-77
2023/03/11 06:42:36;;;;;;;;;3.00;3.00;;;;;7.99;88.57;98217.81;5095948;27;47296;-78
2023/03/11 06:45:02;;;;;;;;;5.00;4.50;;;;;8.00;88.49;98237.03;5097535;27;45490;-78
2023/03/11 06:47:27;;;;;;;;;0.00;0.00;;;;;7.97;87.81;98260.78;5096026;27;45462;-79
2023/03/11 06:49:52;;;;;;;;;1.75;1.00;;;;;7.94;88.19;98246.03;5097661;27;45391;-79
2023/03/11 06:52:18;;;;;;;;;2.00;2.00;;;;;7.96;88.20;98245.97;5097241;27;45815;-79
2023/03/11 06:54:44;;;;;;;;;2.00;2.00;;;;;7.99;88.99;98230.09;5097491;27;45445;-79
2023/03/11 06:57:10;;;;;;;;;2.75;2.75;;;;;8.03;89.00;98229.91;5097731;27;45471;-79
2023/03/11 06:59:36;;;;;;;;;2.25;1.75;;;;;8.07;89.30;98249.81;5097478;27;45291;-78
2023/03/11 07:02:04;;;;;;;;;3.25;3.25;;;;;8.12;88.70;98254.00;5096568;27;46427;-79
2023/03/11 07:04:30;;;;;;;;;2.25;2.25;;;;;8.12;88.80;98260.13;5095526;27;45876;-78
2023/03/11 07:06:56;;;;;;;;;2.75;2.00;;;;;8.16;88.63;98260.84;5097011;27;45466;-78
2023/03/11 07:09:23;;;;;;;;;2.00;2.00;;;;;8.17;88.29;98267.81;5096354;27;45387;-79
2023/03/11 07:11:50;;;;;;;;;2.00;2.00;;;;;8.20;88.49;98260.66;5096468;27;45674;-79
2023/03/11 07:14:16;;;;;;;;;3.00;2.25;;;;;8.22;87.78;98269.28;5096594;27;45465;-79
2023/03/11 07:16:42;;;;;;;;;1.50;1.50;;;;;8.24;87.91;98267.44;5096038;27;45283;-79
2023/03/11 07:19:08;;;;;;;;;4.00;3.00;;;;;8.27;88.16;98280.44;5096696;27;45365;-79
2023/03/11 07:21:34;;;;;;;;;1.00;1.00;;;;;8.26;87.98;98291.00;5096662;27;45493;-78
2023/03/11 07:24:01;;;;;;;;;2.00;2.00;;;;;8.29;88.17;98288.25;5094874;27;45466;-78
2023/03/11 07:26:28;;;;;;;;;3.00;2.00;;;;;8.33;88.21;98264.47;5096711;27;45388;-78
2023/03/11 07:28:54;;;;;;;;;1.50;1.50;;;;;8.37;87.60;98284.41;5096821;27;45563;-78
2023/03/11 07:31:23;;;;;;;;;2.00;2.00;;;;;8.42;87.85;98283.34;5095890;27;45425;-78
2023/03/11 07:33:48;;;;;;;;;1.00;1.00;;;;;8.44;87.90;98286.75;5094717;27;45383;-78
2023/03/11 07:36:17;;;;;;;;;3.75;2.25;;;;;8.51;87.81;98290.81;5096141;27;45361;-78
2023/03/11 07:38:44;;;;;;;;;2.00;2.00;;;;;8.56;87.46;98304.56;5094601;27;45406;-78
2023/03/11 07:41:11;;;;;;;;;4.00;2.75;;;;;8.59;87.58;98310.56;5096946;27;45545;-78
2023/03/11 07:43:37;;;;;;;;;1.25;1.25;;;;;8.61;86.63;98306.09;5096169;27;45353;-77
2023/03/11 07:46:07;;;;;;;;;2.25;2.00;;;;;8.65;86.84;98299.78;5095985;27;45393;-77
2023/03/11 07:48:32;;;;;;;;;5.75;4.50;;;;;8.71;86.77;98312.63;5096091;27;45433;-77
2023/03/11 07:51:11;;;;;;;;;5.00;5.00;;;;;8.81;86.95;98322.72;5095569;27;46356;-78
2023/03/11 07:53:39;;;;;;;;;3.50;3.50;;;;;8.85;86.41;98333.03;5093262;27;45712;-78
2023/03/11 07:56:09;;;;;;;;;6.00;5.00;;;;;8.87;86.30;98323.31;5094507;27;45384;-77
2023/03/11 07:58:35;;;;;;;;;4.75;4.00;;;;;8.88;86.01;98326.78;5094405;27;45376;-77
2023/03/11 08:01:10;;;;;;;;;9.00;7.75;;;;;8.89;86.02;98316.19;5095194;27;45720;-77
2023/03/11 08:03:37;;;;;;;;;9.00;8.75;;;;;8.87;85.96;98332.97;5093840;27;45504;-77
2023/03/11 08:06:10;;;;;;;;;5.25;5.25;;;;;8.86;86.03;98345.25;5096036;27;45380;-77
2023/03/11 08:08:35;;;;;;;;;8.75;6.00;;;;;8.87;86.05;98341.72;5095648;27;45465;-77
2023/03/11 08:11:02;;;;;;;;;7.50;7.00;;;;;8.91;86.59;98355.53;5094034;27;47459;-77
2023/03/11 08:13:28;;;;;;;;;7.75;6.75;;;;;8.94;85.77;98350.16;5095235;27;45399;-77
2023/03/11 08:15:53;;;;;;;;;5.25;5.25;;;;;8.87;85.12;98346.13;5095431;27;45358;-78
2023/03/11 08:18:19;;;;;;;;;6.00;5.25;;;;;8.85;85.66;98346.19;5095526;27;45459;-77
2023/03/11 08:20:44;;;;;;;;;4.75;4.50;;;;;8.88;85.80;98343.38;5095349;27;45415;-77
2023/03/11 08:23:10;;;;;;;;;3.00;2.00;;;;;8.93;85.12;98349.28;5095370;27;45333;-78
2023/03/11 08:25:38;;;;;;;;;4.00;4.00;;;;;8.98;85.79;98351.72;5095562;27;45371;-77
2023/03/11 08:28:06;;;;;;;;;1.00;1.00;;;;;9.04;85.30;98357.56;5094911;27;45479;-77
2023/03/11 08:30:32;;;;;;;;;2.00;2.00;;;;;9.09;85.12;98371.31;5094039;27;45421;-77
2023/03/11 08:32:57;;;;;;;;;4.25;4.25;;;;;9.14;85.04;98386.91;5110369;27;45399;-77
2023/03/11 08:35:24;;;;;;;;;3.50;3.00;;;;;9.19;85.33;98389.31;5094654;27;45471;-78
2023/03/11 08:37:50;;;;;;;;;3.25;3.25;;;;;9.21;84.76;98390.97;5094948;27;45557;-78
2023/03/11 08:40:15;;;;;;;;;1.00;1.00;;;;;9.25;84.27;98397.75;5095011;27;45510;-78
2023/03/11 08:42:41;;;;;;;;;2.00;2.00;;;;;9.27;84.59;98403.81;5094642;27;45505;-77
2023/03/11 08:45:07;;;;;;;;;3.00;1.25;;;;;9.31;84.58;98404.53;5094937;27;45424;-77
2023/03/11 08:47:34;;;;;;;;;4.00;3.75;;;;;9.31;84.75;98418.53;5092765;27;45514;-78
2023/03/11 08:49:59;;;;;;;;;5.75;4.75;;;;;9.31;84.97;98408.00;5094180;27;46593;-78
2023/03/11 08:52:25;;;;;;;;;4.00;4.00;;;;;9.29;84.65;98412.50;5094814;27;45397;-78
2023/03/11 08:54:50;;;;;;;;;5.00;4.75;;;;;9.26;84.98;98403.88;5095082;27;45419;-78
2023/03/11 08:57:15;;;;;;;;;4.25;4.00;;;;;9.23;84.70;98414.53;5080893;27;45583;-78
2023/03/11 08:59:41;;;;;;;;;4.00;4.00;;;;;9.21;85.03;98409.38;5093473;27;46118;-78
2023/03/11 09:02:06;;;;;;;;;3.75;3.75;;;;;9.20;84.73;98414.69;5093648;27;45299;-78
2023/03/11 09:04:32;;;;;;;;;5.00;4.00;;;;;9.21;85.06;98419.03;5094463;27;46008;-78
2023/03/11 09:06:57;;;;;;;;;6.00;5.75;;;;;9.21;85.34;98429.56;5092711;27;45416;-78
2023/03/11 09:09:22;;;;;;;;;4.00;4.00;;;;;9.22;85.32;98418.94;5094567;27;45730;-77
2023/03/11 09:11:48;;;;;;;;;3.00;3.00;;;;;9.24;85.25;98414.47;5092784;27;45644;-78
2023/03/11 09:14:13;;;;;;;;;4.00;2.25;;;;;9.29;85.73;98407.22;5094780;27;45360;-78
2023/03/11 09:16:39;;;;;;;;;4.00;4.00;;;;;9.40;85.54;98419.88;5094272;27;45403;-78
2023/03/11 09:19:06;;;;;;;;;3.00;2.25;;;;;9.53;85.91;98422.81;5109936;27;47356;-78
2023/03/11 09:21:35;;;;;;;;;5.00;3.50;;;;;9.63;85.73;98418.81;5092958;27;45522;-80
2023/03/11 09:24:03;;;;;;;;;5.75;3.00;;;;;9.68;85.21;98422.94;5095024;27;45479;-79
2023/03/11 09:26:29;;;;;;;;;2.00;2.00;;;;;9.73;84.80;98415.66;5094225;27;45378;-77
2023/03/11 09:28:54;;;;;;;;;3.75;3.00;;;;;9.77;84.97;98429.53;5094461;27;46605;-79
2023/03/11 09:31:19;;;;;;;;;1.25;1.25;;;;;9.83;84.99;98420.50;5092173;27;45490;-78
2023/03/11 09:33:45;;;;;;;;;2.25;2.25;;;;;9.86;84.93;98417.72;5094567;27;45678;-78
2023/03/11 09:36:20;;;;;;;;;3.00;3.00;;;;;9.95;84.95;98425.16;5094269;27;45479;-79
2023/03/11 09:38:46;;;;;;;;;1.25;1.25;;;;;10.06;84.20;98436.84;5093857;27;45854;-79
2023/03/11 09:41:21;;;;;;;;;1.00;1.00;;;;;10.13;83.68;98438.28;5094430;27;45480;-78
2023/03/11 09:44:01;;;;;;;;;1.25;1.25;;;;;10.10;83.20;98433.16;5093893;27;45473;-79
2023/03/11 09:47:06;;;;;;;;;2.00;2.00;;;;;10.07;83.40;98429.81;5093708;27;45343;-78
2023/03/11 09:49:59;;;;;;;;;3.75;3.75;;;;;10.15;84.38;98432.94;5082954;27;45382;-78
2023/03/11 09:52:27;;;;;;;;;3.75;3.00;;;;;10.31;83.75;98430.41;5092695;27;45467;-78
2023/03/11 09:54:54;;;;;;;;;3.00;3.00;;;;;10.39;83.53;98433.53;5093457;27;45493;-78
2023/03/11 09:57:26;;;;;;;;;4.75;3.75;;;;;10.48;83.00;98430.44;5091283;27;45713;-78
2023/03/11 09:59:52;;;;;;;;;2.00;2.00;;;;;10.57;83.31;98437.00;5092832;27;46414;-78
2023/03/11 10:02:25;;;;;;;;;2.50;2.50;;;;;10.65;82.56;98433.06;5092545;27;45612;-77
2023/03/11 10:04:53;;;;;;;;;3.25;2.75;;;;;10.75;82.55;98436.91;5093407;27;45420;-77
2023/03/11 10:07:26;;;;;;;;;1.50;1.50;;;;;10.86;82.63;98427.59;5093747;27;45479;-78
2023/03/11 10:09:56;;;;;;;;;1.00;1.00;;;;;10.91;81.32;98446.66;5093343;27;46272;-78
2023/03/11 10:12:31;;;;;;;;;1.50;1.50;;;;;10.84;80.88;98443.50;5093703;27;45499;-78
2023/03/11 10:15:21;;;;;;;;;3.00;3.00;;;;;10.88;81.77;98437.16;5093175;27;45504;-78
2023/03/11 10:18:14;;;;;;;;;6.00;6.00;;;;;11.01;81.63;98445.25;5095364;27;45507;-78
2023/03/11 10:20:48;;;;;;;;;5.25;4.00;;;;;11.13;81.43;98437.53;5096961;27;46420;-79
2023/03/11 10:23:22;;;;;;;;;4.00;4.00;;;;;11.27;80.96;98446.50;5084427;27;45561;-79
2023/03/11 10:26:22;;;;;;;;;5.75;5.75;;;;;11.30;80.66;98448.97;5096671;27;45474;-78
2023/03/11 10:28:47;;;;;;;;;7.00;5.50;;;;;11.33;80.87;98444.41;5097426;27;45377;-78
2023/03/11 10:31:25;;;;;;;;;6.00;5.50;;;;;11.36;80.37;98436.31;5096424;27;46349;-78
2023/03/11 10:34:05;;;;;;;;;8.00;8.00;;;;;11.43;80.94;98436.81;5097011;27;45425;-79
2023/03/11 10:36:46;;;;;;;;;6.00;6.00;;;;;11.56;81.16;98429.97;5097244;27;45374;-77
2023/03/11 10:39:12;;;;;;;;;9.00;9.00;;;;;11.70;80.80;98418.63;5096707;27;45566;-78
2023/03/11 10:41:43;;;;;;;;;8.00;7.00;;;;;11.84;80.59;98431.94;5096961;27;45573;-78
2023/03/11 10:44:22;;;;;;;;;8.00;8.00;;;;;11.92;80.84;98432.34;5095326;27;45391;-77
2023/03/11 10:46:48;;;;;;;;;8.00;8.00;;;;;12.07;80.23;98435.91;5096627;27;45468;-78
2023/03/11 10:49:15;;;;;;;;;7.75;7.75;;;;;12.07;79.49;98444.66;5095824;27;46067;-77
2023/03/11 10:51:45;;;;;;;;;6.00;6.00;;;;;12.08;79.40;98442.88;5094609;27;45602;-77
2023/03/11 10:54:23;;;;;;;;;9.00;8.50;;;;;12.14;80.28;98426.69;5096502;27;45367;-77
2023/03/11 10:56:54;;;;;;;;;7.75;7.75;;;;;12.21;80.14;98434.19;5096698;27;45412;-78
2023/03/11 10:59:30;;;;;;;;;13.25;11.50;;;;;12.33;79.86;98440.56;5096439;27;45452;-78
2023/03/11 11:02:01;;;;;;;;;8.00;8.00;;;;;12.33;79.45;98437.06;5094576;27;45977;-78
2023/03/11 11:04:34;;;;;;;;;8.00;8.00;;;;;12.35;79.70;98435.19;5095258;27;45391;-78
2023/03/11 11:07:29;;;;;;;;;9.00;8.75;;;;;12.47;79.93;98434.44;5096767;27;45441;-78
2023/03/11 11:10:20;;;;;;;;;13.75;13.00;;;;;12.67;80.42;98428.00;5096194;27;45527;-77
2023/03/11 11:12:55;;;;;;;;;16.25;14.50;;;;;12.83;80.47;98421.69;5094024;27;47383;-78
2023/03/11 11:16:01;;;;;;;;;9.00;9.00;;;;;12.87;80.88;98425.88;5093703;27;45772;-78
2023/03/11 11:18:45;;;;;;;;;8.50;8.00;;;;;12.92;80.12;98430.84;5095394;27;45393;-77
2023/03/11 11:21:15;;;;;;;;;7.25;7.25;;;;;12.96;80.02;98434.16;5095871;27;45470;-77
2023/03/11 11:23:45;;;;;;;;;9.75;9.75;;;;;12.95;80.31;98430.66;5096295;27;45645;-77
2023/03/11 11:26:21;;;;;;;;;10.25;9.75;;;;;12.98;79.86;98425.19;5095857;27;45418;-77
2023/03/11 11:29:04;;;;;;;;;11.50;11.50;;;;;13.05;79.70;98428.34;5095056;27;45462;-77
2023/03/11 11:31:29;;;;;;;;;9.50;8.00;;;;;13.12;79.38;98416.41;5095590;27;45519;-77
2023/03/11 11:33:55;;;;;;;;;10.50;10.00;;;;;13.15;79.72;98414.47;5094478;27;47236;-77
2023/03/11 11:36:27;;;;;;;;;9.00;9.00;;;;;13.18;79.74;98421.38;5096289;27;45389;-77
2023/03/11 11:38:53;;;;;;;;;9.50;8.25;;;;;13.27;79.82;98434.03;5096266;27;45363;-79
2023/03/11 11:41:21;;;;;;;;;13.25;11.75;;;;;13.27;78.84;98439.31;5093990;27;45356;-77
2023/03/11 11:43:52;;;;;;;;;14.75;12.75;;;;;13.25;79.68;98431.47;5094025;27;46170;-79